Time;durP1;ratioP1;P1;durP2;ratioP2;P2;SDS_P1;SDS_P2;PMS_P1;PMS_P2;Temp;Humidity;BMP_temperature;BMP_pressure;BME280_temperature;BME280_humidity;BME280_pressure;Samples;Min_cycle;Max_cycle;Signal;HPM_P1;HPM_P2
2022/05/14 00:00:51;;;;;;;9.23;3.10;;;13.50;99.90;;;;;;12566841;28;20054;-79
2022/05/14 00:06:54;;;;;;;8.35;2.80;;;13.60;99.90;;;;;;12549522;28;20052;-80
2022/05/14 00:13:06;;;;;;;9.32;2.85;;;13.70;99.90;;;;;;12556034;28;20044;-80
2022/05/14 00:19:15;;;;;;;7.15;2.65;;;13.60;99.90;;;;;;12541413;28;20044;-79
2022/05/14 00:25:17;;;;;;;7.22;3.00;;;13.50;99.90;;;;;;12563776;28;20048;-79
2022/05/14 00:31:19;;;;;;;9.70;3.15;;;13.50;99.90;;;;;;12552852;28;20134;-80
2022/05/14 00:37:21;;;;;;;9.00;3.90;;;13.60;99.90;;;;;;12561916;28;20064;-78
2022/05/14 00:43:23;;;;;;;9.77;3.08;;;13.50;99.90;;;;;;12549328;28;20482;-80
2022/05/14 00:49:27;;;;;;;7.53;2.97;;;13.40;99.90;;;;;;12530784;28;20052;-80
2022/05/14 00:55:29;;;;;;;6.32;2.80;;;13.40;99.90;;;;;;12560399;28;20470;-80
2022/05/14 01:01:31;;;;;;;8.45;2.78;;;13.40;99.90;;;;;;12555984;28;20048;-79
2022/05/14 01:07:33;;;;;;;9.00;3.05;;;13.40;99.90;;;;;;12559037;28;20049;-78
2022/05/14 01:13:35;;;;;;;6.28;2.92;;;13.40;99.90;;;;;;12558631;28;20749;-79
2022/05/14 01:19:37;;;;;;;9.65;2.60;;;13.20;99.90;;;;;;12562652;28;20105;-79
2022/05/14 01:32:08;;;;;;;8.60;2.60;;;12.80;99.90;;;;;;12558314;28;20474;-79
2022/05/14 01:38:10;;;;;;;12.70;2.70;;;12.80;99.90;;;;;;12547014;28;20048;-79
2022/05/14 01:44:12;;;;;;;8.55;2.53;;;12.80;99.90;;;;;;12530175;28;20109;-79
2022/05/14 01:50:14;;;;;;;8.15;2.60;;;12.90;99.90;;;;;;12544629;28;20397;-79
2022/05/14 01:56:16;;;;;;;8.18;2.92;;;12.80;99.90;;;;;;12559189;28;20091;-79
2022/05/14 02:02:17;;;;;;;5.00;2.42;;;12.70;99.90;;;;;;12557424;28;20048;-79
2022/05/14 02:08:19;;;;;;;10.57;3.03;;;12.80;99.90;;;;;;12557019;28;20053;-79
2022/05/14 02:14:21;;;;;;;11.50;3.47;;;12.80;99.90;;;;;;12565783;28;20060;-79
2022/05/14 02:20:24;;;;;;;10.70;4.88;;;12.80;99.90;;;;;;12567550;28;20131;-79
2022/05/14 02:26:27;;;;;;;11.30;4.45;;;12.80;99.90;;;;;;12544961;28;20665;-80
2022/05/14 02:32:29;;;;;;;9.45;4.95;;;12.80;99.90;;;;;;12570571;28;20049;-80
2022/05/14 02:38:32;;;;;;;13.68;4.90;;;12.80;99.90;;;;;;12565145;28;20071;-79
2022/05/14 02:44:34;;;;;;;10.40;4.63;;;12.70;99.90;;;;;;12565141;28;20540;-78
2022/05/14 02:50:36;;;;;;;11.43;5.38;;;12.60;99.90;;;;;;12553107;28;20063;-79
2022/05/14 02:56:38;;;;;;;9.48;4.43;;;12.50;99.90;;;;;;12543854;28;20454;-79
2022/05/14 03:02:40;;;;;;;11.48;5.03;;;12.30;99.90;;;;;;12561913;28;20505;-79
2022/05/14 03:08:42;;;;;;;10.82;4.82;;;12.30;99.90;;;;;;12564705;28;20056;-79
2022/05/14 03:14:44;;;;;;;8.73;4.38;;;12.30;99.90;;;;;;12541347;28;20046;-79
2022/05/14 03:20:46;;;;;;;9.70;4.82;;;12.40;99.90;;;;;;12544331;28;20101;-79
2022/05/14 03:26:48;;;;;;;7.72;3.80;;;12.40;99.90;;;;;;12567980;28;20059;-80
2022/05/14 03:32:51;;;;;;;11.35;5.10;;;12.40;99.90;;;;;;12565219;28;21070;-79
2022/05/14 03:38:54;;;;;;;9.25;4.82;;;12.20;99.90;;;;;;12560828;28;20056;-79
2022/05/14 03:44:56;;;;;;;12.80;5.38;;;12.40;99.90;;;;;;12568466;28;20135;-79
2022/05/14 03:50:58;;;;;;;10.43;4.68;;;12.40;99.90;;;;;;12560658;28;20094;-79
2022/05/14 03:57:00;;;;;;;8.80;5.18;;;12.40;99.90;;;;;;12565525;28;20113;-80
2022/05/14 04:03:02;;;;;;;14.98;5.15;;;12.40;99.90;;;;;;12559103;28;20043;-79
2022/05/14 04:09:04;;;;;;;19.30;5.30;;;12.30;99.90;;;;;;12544806;28;20052;-79
2022/05/14 04:15:06;;;;;;;12.00;5.00;;;12.20;99.90;;;;;;12527819;28;20070;-79
2022/05/14 04:21:09;;;;;;;11.25;4.47;;;12.20;99.90;;;;;;12552017;28;20498;-80
2022/05/14 04:27:11;;;;;;;12.95;4.82;;;12.30;99.90;;;;;;12537402;28;20048;-78
2022/05/14 04:33:13;;;;;;;10.30;4.60;;;12.30;99.90;;;;;;12555385;28;20739;-78
2022/05/14 04:39:15;;;;;;;13.13;4.30;;;12.40;99.90;;;;;;12564231;28;20550;-79
2022/05/14 04:45:17;;;;;;;9.05;4.40;;;12.40;99.90;;;;;;12593465;28;20094;-79
2022/05/14 04:51:19;;;;;;;13.32;5.03;;;12.40;99.90;;;;;;12557642;28;20045;-79
2022/05/14 04:57:21;;;;;;;10.18;4.93;;;12.50;99.90;;;;;;12579636;28;20040;-78
2022/05/14 05:03:24;;;;;;;12.75;4.40;;;12.40;99.90;;;;;;12494974;28;20136;-79
2022/05/14 05:09:27;;;;;;;12.88;4.65;;;12.30;99.90;;;;;;12488135;28;20140;-80
2022/05/14 05:15:29;;;;;;;16.50;4.65;;;12.40;99.90;;;;;;12485588;28;20129;-80
2022/05/14 05:21:31;;;;;;;10.63;4.72;;;12.40;99.90;;;;;;12522891;28;20060;-79
2022/05/14 05:27:33;;;;;;;15.77;4.80;;;12.40;99.90;;;;;;12534364;28;20130;-79
2022/05/14 05:33:35;;;;;;;16.98;4.10;;;12.50;99.90;;;;;;12482168;28;20752;-79
2022/05/14 05:39:37;;;;;;;12.75;4.10;;;12.70;99.90;;;;;;12492193;28;20444;-79
2022/05/14 05:45:40;;;;;;;13.20;4.07;;;12.80;99.90;;;;;;12514858;28;20049;-79
2022/05/14 05:51:42;;;;;;;13.00;3.93;;;12.80;99.90;;;;;;12479176;28;20537;-79
2022/05/14 05:57:44;;;;;;;11.38;3.88;;;12.90;99.90;;;;;;12511967;28;20533;-79
2022/05/14 06:03:48;;;;;;;12.85;4.30;;;13.00;99.90;;;;;;12543356;28;20049;-79
2022/05/14 06:09:50;;;;;;;;;;;12.90;99.90;;;;;;12570249;28;20049;-79
2022/05/14 06:15:52;;;;;;;12.30;4.03;;;13.00;99.90;;;;;;12566999;28;20400;-79
2022/05/14 06:21:54;;;;;;;14.65;4.40;;;13.10;99.90;;;;;;12571765;28;20036;-79
2022/05/14 06:27:56;;;;;;;14.18;4.90;;;13.10;99.90;;;;;;12574079;28;20474;-79
2022/05/14 06:33:59;;;;;;;12.27;5.40;;;13.10;99.90;;;;;;12568583;28;20055;-78
2022/05/14 06:40:02;;;;;;;15.48;5.95;;;13.20;99.90;;;;;;12559671;28;20634;-78
2022/05/14 06:46:04;;;;;;;16.63;6.53;;;13.30;99.90;;;;;;12504328;28;20109;-78
2022/05/14 06:52:10;;;;;;;15.85;6.00;;;13.20;99.90;;;;;;12536257;28;20457;-78
2022/05/14 06:58:16;;;;;;;17.65;6.07;;;13.20;99.90;;;;;;12566814;28;20501;-79
2022/05/14 07:10:39;;;;;;;16.48;6.47;;;13.50;99.90;;;;;;12563446;28;20111;-80
2022/05/14 07:16:41;;;;;;;19.90;6.82;;;13.60;99.90;;;;;;12529462;28;20056;-79
2022/05/14 07:22:44;;;;;;;17.00;6.50;;;13.60;99.90;;;;;;12490441;28;20180;-79
2022/05/14 07:28:46;;;;;;;14.13;6.73;;;13.60;99.90;;;;;;12514003;28;20114;-78
2022/05/14 07:34:48;;;;;;;19.05;7.28;;;13.90;99.90;;;;;;12505460;28;20063;-79
2022/05/14 07:40:51;;;;;;;18.00;6.47;;;14.00;99.90;;;;;;12512942;28;20049;-79
2022/05/14 07:46:53;;;;;;;18.27;6.78;;;14.00;99.90;;;;;;12508247;28;20107;-79
2022/05/14 07:52:56;;;;;;;12.70;6.53;;;14.20;99.90;;;;;;12512206;28;20456;-78
2022/05/14 07:58:58;;;;;;;16.08;6.65;;;14.30;99.90;;;;;;12512775;28;20067;-79
2022/05/14 08:05:08;;;;;;;21.98;7.32;;;14.20;99.90;;;;;;12507728;28;20225;-80
2022/05/14 08:11:10;;;;;;;16.27;6.57;;;14.50;99.90;;;;;;12511336;28;20426;-79
2022/05/14 08:17:12;;;;;;;22.15;6.18;;;14.70;99.90;;;;;;12510986;28;20766;-79
2022/05/14 08:29:36;;;;;;;18.20;6.43;;;14.90;99.90;;;;;;12509025;28;20053;-78
2022/05/14 08:35:39;;;;;;;16.55;6.80;;;15.20;99.90;;;;;;12489631;28;20048;-79
2022/05/14 08:41:43;;;;;;;14.55;6.00;;;15.40;99.90;;;;;;12511866;28;20120;-79
2022/05/14 08:47:56;;;;;;;19.65;6.65;;;15.60;99.90;;;;;;12511052;28;20060;-79
2022/05/14 08:53:59;;;;;;;15.15;6.05;;;15.60;99.90;;;;;;12494213;28;20098;-78
2022/05/14 09:00:02;;;;;;;15.48;5.32;;;15.90;99.90;;;;;;12500810;28;20103;-79
2022/05/14 09:06:04;;;;;;;17.05;5.93;;;15.80;99.90;;;;;;12504902;28;20114;-79
2022/05/14 09:12:09;;;;;;;17.48;5.78;;;16.10;99.90;;;;;;12502036;28;20057;-79
2022/05/14 09:18:20;;;;;;;20.35;5.20;;;16.40;99.90;;;;;;12503472;28;20051;-79
2022/05/14 09:24:39;;;;;;;14.80;4.25;;;16.50;99.90;;;;;;12504080;28;20131;-79
2022/05/14 09:30:45;;;;;;;15.50;5.03;;;16.70;99.90;;;;;;12502658;28;20045;-79
2022/05/14 09:36:50;;;;;;;18.17;5.75;;;16.60;99.90;;;;;;12511799;28;20056;-80
2022/05/14 09:42:55;;;;;;;15.23;4.68;;;17.00;99.90;;;;;;12509687;28;20056;-79
2022/05/14 09:49:03;;;;;;;12.65;4.63;;;17.00;99.90;;;;;;12492821;28;20135;-78
2022/05/14 09:55:08;;;;;;;19.52;4.03;;;17.60;99.90;;;;;;12503495;28;20061;-78
2022/05/14 10:01:18;;;;;;;14.10;5.35;;;17.70;99.90;;;;;;12497088;28;20186;-79
2022/05/14 10:07:33;;;;;;;17.45;4.93;;;17.80;99.90;;;;;;12503191;28;20107;-79
2022/05/14 10:14:13;;;;;;;13.82;4.55;;;18.00;99.90;;;;;;12490824;28;20041;-80
2022/05/14 10:20:18;;;;;;;17.90;5.38;;;18.40;99.90;;;;;;12507989;28;20037;-79
2022/05/14 10:26:46;;;;;;;20.48;5.25;;;17.80;99.90;;;;;;12507071;28;20049;-79
2022/05/14 10:33:02;;;;;;;15.35;5.25;;;18.00;99.90;;;;;;12485541;28;20580;-78
2022/05/14 10:39:14;;;;;;;14.25;3.90;;;18.50;99.90;;;;;;12517718;28;20952;-79
2022/05/14 10:45:31;;;;;;;16.73;4.15;;;18.80;99.90;;;;;;12513700;28;20064;-79
2022/05/14 10:51:44;;;;;;;18.88;4.45;;;19.00;99.90;;;;;;12514013;28;20104;-79
2022/05/14 10:57:51;;;;;;;17.95;4.28;;;18.70;99.90;;;;;;12501068;28;20061;-79
2022/05/14 11:03:59;;;;;;;13.82;4.22;;;18.60;99.90;;;;;;12527078;28;20106;-79
2022/05/14 11:10:14;;;;;;;20.23;4.00;;;18.90;99.90;;;;;;12503489;28;20063;-80
2022/05/14 11:16:16;;;;;;;11.38;4.05;;;19.10;99.90;;;;;;12501917;28;20136;-80
2022/05/14 11:22:23;;;;;;;19.17;7.43;;;19.60;99.90;;;;;;12502077;28;20044;-79
2022/05/14 11:28:28;;;;;;;12.80;3.47;;;19.50;99.90;;;;;;12522352;28;20403;-79
2022/05/14 11:34:31;;;;;;;12.45;3.42;;;19.70;99.90;;;;;;12521453;28;20078;-81
2022/05/14 11:40:33;;;;;;;14.77;3.58;;;19.40;99.90;;;;;;12538868;28;20154;-79
2022/05/14 11:46:48;;;;;;;15.55;3.20;;;19.10;99.90;;;;;;12519041;28;20061;-80
2022/05/14 11:53:02;;;;;;;11.13;3.80;;;18.80;99.90;;;;;;12508360;28;20053;-79
2022/05/14 11:59:29;;;;;;;10.25;2.60;;;18.40;99.90;;;;;;12498880;28;20060;-79
2022/05/14 12:05:48;;;;;;;15.60;3.53;;;18.50;99.90;;;;;;12505191;28;20053;-79
2022/05/14 12:12:01;;;;;;;14.68;3.40;;;18.20;99.90;;;;;;12524597;28;20056;-79
2022/05/14 12:18:11;;;;;;;13.20;3.13;;;18.70;99.90;;;;;;12514908;28;20057;-79
2022/05/14 12:24:23;;;;;;;13.00;3.30;;;18.60;99.90;;;;;;12502252;28;20107;-80
2022/05/14 12:36:51;;;;;;;14.60;3.08;;;19.40;99.90;;;;;;12516355;28;20159;-80
2022/05/14 12:42:54;;;;;;;16.63;3.42;;;19.10;99.90;;;;;;12509848;28;20049;-80
2022/05/14 12:48:57;;;;;;;16.00;3.60;;;18.70;99.90;;;;;;12513721;28;20045;-81
2022/05/14 12:55:12;;;;;;;12.07;2.72;;;18.50;99.90;;;;;;12499369;28;20443;-79
2022/05/14 13:01:17;;;;;;;13.40;3.17;;;19.20;99.90;;;;;;12493808;28;20052;-80
2022/05/14 13:07:20;;;;;;;13.63;2.97;;;19.40;99.90;;;;;;12505583;28;20106;-80
2022/05/14 13:13:36;;;;;;;11.33;2.80;;;19.90;99.90;;;;;;12505186;28;20072;-79
2022/05/14 13:19:41;;;;;;;10.75;2.75;;;20.00;99.90;;;;;;12511491;28;20451;-79
2022/05/14 13:25:43;;;;;;;17.70;3.40;;;19.40;99.90;;;;;;12505796;28;20126;-79
2022/05/14 13:31:46;;;;;;;17.05;3.38;;;19.70;99.90;;;;;;12502046;28;20694;-80
2022/05/14 13:37:47;;;;;;;11.23;3.13;;;19.50;99.90;;;;;;12509438;28;20102;-79
2022/05/14 13:50:07;;;;;;;12.75;3.13;;;19.00;99.90;;;;;;12535260;28;20404;-39
2022/05/14 13:56:12;;;;;;;12.80;3.30;;;19.10;99.90;;;;;;12516998;28;20097;-40
2022/05/14 14:02:26;;;;;;;12.90;3.20;;;19.60;99.90;;;;;;12515724;28;20438;-39
2022/05/14 14:08:29;;;;;;;;;;;19.70;99.90;;;;;;12516298;28;20073;-39
2022/05/14 14:14:31;;;;;;;16.40;3.42;;;19.70;99.90;;;;;;12545680;28;19944;-42
2022/05/14 14:20:38;;;;;;;13.00;3.10;;;20.20;99.90;;;;;;12561587;28;20052;-39
2022/05/14 14:26:41;;;;;;;13.85;2.83;;;20.40;99.90;;;;;;12563828;28;20053;-42
2022/05/14 14:32:43;;;;;;;12.90;2.60;;;20.60;99.90;;;;;;12558876;28;20381;-39
2022/05/14 14:38:45;;;;;;;9.40;2.50;;;20.80;99.90;;;;;;12561235;28;20076;-41
2022/05/14 14:44:47;;;;;;;12.23;3.20;;;20.90;99.90;;;;;;12560750;28;20082;-42
2022/05/14 14:50:49;;;;;;;16.80;3.72;;;20.50;99.90;;;;;;12558938;28;20045;-39
2022/05/14 14:56:51;;;;;;;13.95;2.90;;;20.20;99.90;;;;;;12554149;28;20075;-39
2022/05/14 15:03:11;;;;;;;14.95;3.13;;;20.20;99.90;;;;;;12526515;28;20139;-42
2022/05/14 15:09:13;;;;;;;14.77;3.20;;;20.60;99.90;;;;;;12528448;28;20524;-40
2022/05/14 15:15:15;;;;;;;12.57;2.92;;;20.70;99.90;;;;;;12523638;28;20049;-39
2022/05/14 15:21:17;;;;;;;8.52;2.60;;;20.50;99.90;;;;;;12527452;28;20139;-42
2022/05/14 15:27:20;;;;;;;11.85;2.88;;;20.50;99.90;;;;;;12522314;28;20037;-38
2022/05/14 15:33:23;;;;;;;12.95;3.05;;;20.30;99.90;;;;;;12524195;28;20394;-39
2022/05/14 15:39:26;;;;;;;11.00;2.75;;;20.20;99.90;;;;;;12524020;28;20056;-42
2022/05/14 15:45:34;;;;;;;12.40;3.47;;;20.40;99.90;;;;;;12524557;28;20059;-43
2022/05/14 15:51:37;;;;;;;10.10;2.65;;;20.30;99.90;;;;;;12522120;28;20508;-42
2022/05/14 15:57:40;;;;;;;10.97;3.13;;;20.30;99.90;;;;;;12524363;28;20045;-41
2022/05/14 16:03:42;;;;;;;13.90;2.77;;;20.50;99.90;;;;;;12522258;28;20045;-42
2022/05/14 16:16:10;;;;;;;14.32;2.80;;;21.00;99.90;;;;;;12524466;28;20069;-41
2022/05/14 16:22:12;;;;;;;21.73;2.90;;;20.70;99.90;;;;;;12524836;28;20052;-42
2022/05/14 16:28:14;;;;;;;50.08;5.28;;;20.90;99.90;;;;;;12524083;28;20090;-39
2022/05/14 16:34:16;;;;;;;12.23;3.43;;;20.60;99.90;;;;;;12521807;28;20036;-42
2022/05/14 16:40:19;;;;;;;12.75;3.72;;;20.60;99.90;;;;;;12523683;28;20057;-39
2022/05/14 16:46:22;;;;;;;12.38;3.35;;;20.60;99.90;;;;;;12522802;28;20065;-41
2022/05/14 16:52:24;;;;;;;10.73;3.13;;;20.50;99.90;;;;;;12518674;28;20553;-42
2022/05/14 16:58:28;;;;;;;14.13;2.93;;;19.80;99.90;;;;;;12524887;28;20390;-39
2022/05/14 17:04:30;;;;;;;;;;;19.40;99.90;;;;;;12522915;28;20452;-39
2022/05/14 17:10:36;;;;;;;14.18;2.88;;;19.50;99.90;;;;;;12524036;28;19924;-39
2022/05/14 17:16:38;;;;;;;12.15;2.90;;;19.80;99.90;;;;;;12517756;28;20049;-40
2022/05/14 17:22:41;;;;;;;14.40;3.35;;;20.10;99.90;;;;;;12520125;28;20049;-42
2022/05/14 17:28:43;;;;;;;14.85;3.75;;;20.40;99.90;;;;;;12522518;28;20045;-41
2022/05/14 17:34:46;;;;;;;13.68;3.90;;;20.50;99.90;;;;;;12521693;28;20436;-42
2022/05/14 17:40:48;;;;;;;13.02;4.15;;;20.30;99.90;;;;;;12520987;28;20209;-40
2022/05/14 17:46:49;;;;;;;11.77;3.70;;;20.10;99.90;;;;;;12522205;28;20055;-42
2022/05/14 17:52:51;;;;;;;15.65;4.15;;;19.80;99.90;;;;;;12519921;28;20040;-42
2022/05/14 17:58:56;;;;;;;21.65;4.90;;;19.50;99.90;;;;;;12522598;28;20049;-39
2022/05/14 18:04:58;;;;;;;12.07;3.35;;;19.50;99.90;;;;;;12514680;28;20584;-42
2022/05/14 18:17:22;;;;;;;14.70;4.47;;;19.20;99.90;;;;;;12516057;28;20064;-43
2022/05/14 18:23:28;;;;;;;13.95;4.43;;;18.90;99.90;;;;;;12520988;28;20080;-40
2022/05/14 18:29:38;;;;;;;20.40;4.57;;;18.70;99.90;;;;;;12520106;28;20053;-40
2022/05/14 18:35:46;;;;;;;16.92;4.28;;;18.20;99.90;;;;;;12527800;28;20517;-43
2022/05/14 18:41:49;;;;;;;14.07;3.90;;;18.10;99.90;;;;;;12534124;28;20098;-42
2022/05/14 18:47:51;;;;;;;14.68;3.80;;;17.80;99.90;;;;;;12526579;28;20052;-40
2022/05/14 18:53:53;;;;;;;15.10;4.15;;;17.80;99.90;;;;;;12519810;28;20824;-42
2022/05/14 18:59:55;;;;;;;22.25;4.82;;;17.80;99.90;;;;;;12531401;28;20083;-39
2022/05/14 19:12:18;;;;;;;16.83;5.05;;;17.60;99.90;;;;;;12528406;28;20045;-39
2022/05/14 19:18:20;;;;;;;18.33;4.47;;;17.40;99.90;;;;;;12529756;28;20094;-41
2022/05/14 19:24:23;;;;;;;21.45;4.53;;;17.30;99.90;;;;;;12529355;28;20080;-39
2022/05/14 19:30:25;;;;;;;18.42;4.18;;;17.20;99.90;;;;;;12530165;28;20068;-40
2022/05/14 19:36:33;;;;;;;15.85;4.35;;;17.10;99.90;;;;;;12538730;28;20049;-39
2022/05/14 19:43:09;;;;;;;22.07;4.07;;;17.00;99.90;;;;;;12542794;28;20143;-39
2022/05/14 19:49:28;;;;;;;16.15;4.80;;;16.90;99.90;;;;;;12541343;28;20156;-41
2022/05/14 19:55:44;;;;;;;20.40;4.40;;;16.70;99.90;;;;;;12549158;28;20045;-39
2022/05/14 20:02:05;;;;;;;16.38;4.40;;;16.60;99.90;;;;;;12541933;28;20053;-39
2022/05/14 20:08:37;;;;;;;13.88;3.97;;;16.60;99.90;;;;;;12539400;28;20132;-41
2022/05/14 20:14:48;;;;;;;15.18;4.15;;;16.50;99.90;;;;;;12536871;28;20078;-39
2022/05/14 20:21:02;;;;;;;13.50;3.53;;;16.20;99.90;;;;;;12543483;28;20057;-41
2022/05/14 20:27:17;;;;;;;12.48;3.67;;;16.20;99.90;;;;;;12541137;28;20643;-39
2022/05/14 20:33:35;;;;;;;15.48;3.80;;;16.10;99.90;;;;;;12539087;28;20386;-39
2022/05/14 20:39:51;;;;;;;16.52;4.68;;;15.90;99.90;;;;;;12540471;28;20087;-40
2022/05/14 20:46:02;;;;;;;13.05;3.97;;;15.70;99.90;;;;;;12544432;28;20566;-39
2022/05/14 20:52:25;;;;;;;14.15;4.03;;;15.60;99.90;;;;;;12537503;28;20390;-40
2022/05/14 20:58:40;;;;;;;14.93;3.88;;;15.50;99.90;;;;;;12540670;28;20511;-40
2022/05/14 21:04:55;;;;;;;15.93;4.57;;;15.50;99.90;;;;;;12533255;28;20100;-39
2022/05/14 21:11:11;;;;;;;17.30;4.10;;;15.30;99.90;;;;;;12538362;28;20556;-41
2022/05/14 21:17:31;;;;;;;11.32;3.78;;;15.30;99.90;;;;;;12536371;28;20064;-39
2022/05/14 21:23:50;;;;;;;21.75;4.97;;;15.10;99.90;;;;;;12537960;28;20091;-39
2022/05/14 21:30:13;;;;;;;17.40;3.85;;;15.10;99.90;;;;;;12524928;28;20490;-39
2022/05/14 21:43:14;;;;;;;11.80;3.67;;;15.10;99.90;;;;;;12537479;28;20049;-41
2022/05/14 21:49:38;;;;;;;17.67;3.47;;;15.00;99.90;;;;;;12540200;28;20063;-41
2022/05/14 21:55:53;;;;;;;13.15;3.55;;;14.90;99.90;;;;;;12531537;28;20132;-40
2022/05/14 22:02:12;;;;;;;14.30;3.50;;;14.80;99.90;;;;;;12519245;28;20057;-39
2022/05/14 22:08:23;;;;;;;14.95;3.03;;;14.80;99.90;;;;;;12541069;28;20186;-41
2022/05/14 22:14:49;;;;;;;13.18;3.63;;;14.80;99.90;;;;;;12538888;28;20402;-39
2022/05/14 22:21:09;;;;;;;15.67;3.80;;;14.70;99.90;;;;;;12536845;28;20072;-39
2022/05/14 22:27:24;;;;;;;16.70;3.55;;;14.70;99.90;;;;;;12547109;28;20041;-41
2022/05/14 22:33:45;;;;;;;14.68;3.58;;;14.70;99.90;;;;;;12546759;28;20053;-39
2022/05/14 22:46:43;;;;;;;13.13;3.33;;;14.60;99.90;;;;;;12544233;28;20057;-40
2022/05/14 22:53:04;;;;;;;14.88;3.65;;;14.60;99.90;;;;;;12546222;28;20045;-38
2022/05/14 22:59:13;;;;;;;14.50;4.10;;;14.60;99.90;;;;;;12546291;28;20098;-39
2022/05/14 23:05:31;;;;;;;13.13;3.10;;;14.40;99.90;;;;;;12542075;28;20054;-39
2022/05/14 23:11:41;;;;;;;8.70;2.53;;;14.40;99.90;;;;;;12533660;28;20052;-38
2022/05/14 23:17:56;;;;;;;10.70;3.28;;;14.40;99.90;;;;;;12543471;28;20055;-41
2022/05/14 23:24:09;;;;;;;13.20;3.60;;;14.40;99.90;;;;;;12547550;28;20546;-39
2022/05/14 23:30:28;;;;;;;10.55;2.53;;;14.40;99.90;;;;;;12544081;28;20064;-41
2022/05/14 23:36:42;;;;;;;11.50;2.72;;;14.30;99.90;;;;;;12543906;28;20068;-38
2022/05/14 23:43:04;;;;;;;12.10;2.80;;;14.30;99.90;;;;;;12548220;28;20198;-40
2022/05/14 23:49:22;;;;;;;12.80;2.55;;;14.10;99.90;;;;;;12541779;28;20144;-39
2022/05/14 23:55:39;;;;;;;9.57;2.50;;;14.10;99.90;;;;;;12537695;28;20085;-41
